Terminal Aerodrome Forecast
Issued by NWS

Home | Current Version | Previous Version | Text Only | Print | Product List | Glossary On
Versions: 1 2 3 4 5 6 7 8 9 10 11 12 13 14 15 16 17 18 19
000
FTUS42 KTBW 291720
TAFPGD
TAF
KPGD 291720Z 2918/3018 27006KT P6SM VCTS SCT035CB BKN100
      TEMPO 2918/2921 VRB15G20KT 4SM TSRA BKN025CB
     FM300100 VRB03KT P6SM SCT030
     FM301500 VRB03KT P6SM VCTS SCT030CB=

USA.gov is the U.S. government's official web portal to all federal, state and local government web resources and services.